sensor_id;sensor_type;location;lat;lon;timestamp;P1;durP1;ratioP1;P2;durP2;ratioP2
11962;SDS011;62678;52.130;5.584;2024-01-15T00:01:08;12.18;;;1.85;;
11962;SDS011;62678;52.130;5.584;2024-01-15T00:03:35;15.63;;;2.00;;
11962;SDS011;62678;52.130;5.584;2024-01-15T00:06:02;11.15;;;2.10;;
11962;SDS011;62678;52.130;5.584;2024-01-15T00:08:30;11.60;;;1.50;;
11962;SDS011;62678;52.130;5.584;2024-01-15T00:10:58;12.63;;;2.00;;
11962;SDS011;62678;52.130;5.584;2024-01-15T00:13:25;21.27;;;2.58;;
11962;SDS011;62678;52.130;5.584;2024-01-15T00:15:53;13.45;;;1.90;;
11962;SDS011;62678;52.130;5.584;2024-01-15T00:18:20;10.35;;;1.52;;
11962;SDS011;62678;52.130;5.584;2024-01-15T00:20:47;13.20;;;2.10;;
11962;SDS011;62678;52.130;5.584;2024-01-15T00:23:14;9.02;;;1.60;;
11962;SDS011;62678;52.130;5.584;2024-01-15T00:25:41;11.80;;;1.67;;
11962;SDS011;62678;52.130;5.584;2024-01-15T00:28:10;11.50;;;1.75;;
11962;SDS011;62678;52.130;5.584;2024-01-15T00:30:37;12.30;;;2.10;;
11962;SDS011;62678;52.130;5.584;2024-01-15T00:33:04;6.90;;;1.80;;
11962;SDS011;62678;52.130;5.584;2024-01-15T00:35:32;12.25;;;2.00;;
11962;SDS011;62678;52.130;5.584;2024-01-15T00:37:59;18.00;;;2.10;;
11962;SDS011;62678;52.130;5.584;2024-01-15T00:40:26;14.13;;;1.98;;
11962;SDS011;62678;52.130;5.584;2024-01-15T00:42:53;11.07;;;1.90;;
11962;SDS011;62678;52.130;5.584;2024-01-15T00:45:22;10.98;;;2.13;;
11962;SDS011;62678;52.130;5.584;2024-01-15T00:47:49;14.75;;;2.00;;
11962;SDS011;62678;52.130;5.584;2024-01-15T00:50:16;12.27;;;2.05;;
11962;SDS011;62678;52.130;5.584;2024-01-15T00:52:43;10.55;;;2.10;;
11962;SDS011;62678;52.130;5.584;2024-01-15T00:55:10;19.08;;;2.40;;
11962;SDS011;62678;52.130;5.584;2024-01-15T00:57:38;13.65;;;2.25;;
11962;SDS011;62678;52.130;5.584;2024-01-15T01:00:05;12.32;;;2.10;;
11962;SDS011;62678;52.130;5.584;2024-01-15T01:02:35;17.98;;;2.30;;
11962;SDS011;62678;52.130;5.584;2024-01-15T01:05:03;15.05;;;2.15;;
11962;SDS011;62678;52.130;5.584;2024-01-15T01:07:30;14.95;;;2.20;;
11962;SDS011;62678;52.130;5.584;2024-01-15T01:09:57;11.50;;;1.92;;
11962;SDS011;62678;52.130;5.584;2024-01-15T01:12:24;11.23;;;1.75;;
11962;SDS011;62678;52.130;5.584;2024-01-15T01:14:51;17.65;;;2.20;;
11962;SDS011;62678;52.130;5.584;2024-01-15T01:17:18;12.80;;;2.20;;
11962;SDS011;62678;52.130;5.584;2024-01-15T01:19:47;12.15;;;2.00;;
11962;SDS011;62678;52.130;5.584;2024-01-15T01:22:14;11.15;;;1.65;;
11962;SDS011;62678;52.130;5.584;2024-01-15T01:24:41;13.50;;;1.95;;
11962;SDS011;62678;52.130;5.584;2024-01-15T01:27:09;16.85;;;2.35;;
11962;SDS011;62678;52.130;5.584;2024-01-15T01:29:36;7.80;;;2.15;;
11962;SDS011;62678;52.130;5.584;2024-01-15T01:32:03;15.30;;;2.08;;
11962;SDS011;62678;52.130;5.584;2024-01-15T01:34:32;13.60;;;2.25;;
11962;SDS011;62678;52.130;5.584;2024-01-15T01:37:00;10.70;;;1.73;;
11962;SDS011;62678;52.130;5.584;2024-01-15T01:39:28;17.20;;;1.92;;
11962;SDS011;62678;52.130;5.584;2024-01-15T01:41:55;9.88;;;1.80;;
11962;SDS011;62678;52.130;5.584;2024-01-15T01:44:22;13.88;;;2.25;;
11962;SDS011;62678;52.130;5.584;2024-01-15T01:46:49;8.90;;;1.88;;
11962;SDS011;62678;52.130;5.584;2024-01-15T01:49:16;11.05;;;1.67;;
11962;SDS011;62678;52.130;5.584;2024-01-15T01:51:44;15.02;;;2.47;;
11962;SDS011;62678;52.130;5.584;2024-01-15T01:54:13;10.10;;;1.85;;
11962;SDS011;62678;52.130;5.584;2024-01-15T01:56:41;16.70;;;2.13;;
11962;SDS011;62678;52.130;5.584;2024-01-15T01:59:09;14.15;;;2.47;;
11962;SDS011;62678;52.130;5.584;2024-01-15T02:01:36;7.68;;;1.25;;
11962;SDS011;62678;52.130;5.584;2024-01-15T02:04:03;14.48;;;2.13;;
11962;SDS011;62678;52.130;5.584;2024-01-15T02:06:31;12.27;;;2.03;;
11962;SDS011;62678;52.130;5.584;2024-01-15T02:08:58;13.52;;;2.60;;
11962;SDS011;62678;52.130;5.584;2024-01-15T02:11:27;18.15;;;2.17;;
11962;SDS011;62678;52.130;5.584;2024-01-15T02:13:54;16.20;;;2.05;;
11962;SDS011;62678;52.130;5.584;2024-01-15T02:16:21;9.55;;;2.28;;
11962;SDS011;62678;52.130;5.584;2024-01-15T02:18:48;14.98;;;2.00;;
11962;SDS011;62678;52.130;5.584;2024-01-15T02:21:16;10.65;;;2.10;;
11962;SDS011;62678;52.130;5.584;2024-01-15T02:23:44;17.20;;;2.40;;
11962;SDS011;62678;52.130;5.584;2024-01-15T02:26:11;12.00;;;1.67;;
11962;SDS011;62678;52.130;5.584;2024-01-15T02:28:39;14.30;;;2.75;;
11962;SDS011;62678;52.130;5.584;2024-01-15T02:31:09;15.85;;;1.60;;
11962;SDS011;62678;52.130;5.584;2024-01-15T02:33:36;7.72;;;1.35;;
11962;SDS011;62678;52.130;5.584;2024-01-15T02:36:03;11.13;;;1.40;;
11962;SDS011;62678;52.130;5.584;2024-01-15T02:38:31;11.30;;;2.05;;
11962;SDS011;62678;52.130;5.584;2024-01-15T02:40:59;8.35;;;1.50;;
11962;SDS011;62678;52.130;5.584;2024-01-15T02:43:26;7.70;;;1.38;;
11962;SDS011;62678;52.130;5.584;2024-01-15T02:45:54;14.10;;;1.42;;
11962;SDS011;62678;52.130;5.584;2024-01-15T02:48:21;8.35;;;1.75;;
11962;SDS011;62678;52.130;5.584;2024-01-15T02:50:48;10.57;;;1.60;;
11962;SDS011;62678;52.130;5.584;2024-01-15T02:53:15;16.05;;;1.67;;
11962;SDS011;62678;52.130;5.584;2024-01-15T02:55:42;13.85;;;1.70;;
11962;SDS011;62678;52.130;5.584;2024-01-15T02:58:11;8.93;;;1.02;;
11962;SDS011;62678;52.130;5.584;2024-01-15T03:00:38;7.00;;;1.40;;
11962;SDS011;62678;52.130;5.584;2024-01-15T03:03:05;11.80;;;1.17;;
11962;SDS011;62678;52.130;5.584;2024-01-15T03:05:32;5.85;;;1.23;;
11962;SDS011;62678;52.130;5.584;2024-01-15T03:07:59;6.22;;;1.02;;
11962;SDS011;62678;52.130;5.584;2024-01-15T03:10:26;6.65;;;1.25;;
11962;SDS011;62678;52.130;5.584;2024-01-15T03:12:53;6.90;;;1.25;;
11962;SDS011;62678;52.130;5.584;2024-01-15T03:15:22;7.03;;;1.10;;
11962;SDS011;62678;52.130;5.584;2024-01-15T03:17:49;8.50;;;1.00;;
11962;SDS011;62678;52.130;5.584;2024-01-15T03:20:16;8.55;;;1.08;;
11962;SDS011;62678;52.130;5.584;2024-01-15T03:22:43;5.82;;;1.05;;
11962;SDS011;62678;52.130;5.584;2024-01-15T03:25:11;3.47;;;0.98;;
11962;SDS011;62678;52.130;5.584;2024-01-15T03:27:38;8.80;;;1.02;;
11962;SDS011;62678;52.130;5.584;2024-01-15T03:30:05;13.68;;;1.38;;
11962;SDS011;62678;52.130;5.584;2024-01-15T03:32:34;7.05;;;1.20;;
11962;SDS011;62678;52.130;5.584;2024-01-15T03:35:01;4.10;;;1.20;;
11962;SDS011;62678;52.130;5.584;2024-01-15T03:37:28;6.90;;;1.42;;
11962;SDS011;62678;52.130;5.584;2024-01-15T03:39:55;5.90;;;1.00;;
11962;SDS011;62678;52.130;5.584;2024-01-15T03:42:23;6.28;;;1.27;;
11962;SDS011;62678;52.130;5.584;2024-01-15T03:44:50;5.15;;;0.95;;
11962;SDS011;62678;52.130;5.584;2024-01-15T03:47:17;7.65;;;1.88;;
11962;SDS011;62678;52.130;5.584;2024-01-15T03:49:45;7.25;;;1.05;;
11962;SDS011;62678;52.130;5.584;2024-01-15T03:52:12;9.68;;;1.33;;
11962;SDS011;62678;52.130;5.584;2024-01-15T03:54:40;8.73;;;1.58;;
11962;SDS011;62678;52.130;5.584;2024-01-15T03:57:07;6.65;;;1.17;;
11962;SDS011;62678;52.130;5.584;2024-01-15T03:59:34;16.38;;;4.43;;
11962;SDS011;62678;52.130;5.584;2024-01-15T04:02:01;5.40;;;1.60;;
11962;SDS011;62678;52.130;5.584;2024-01-15T04:04:29;6.57;;;1.73;;
11962;SDS011;62678;52.130;5.584;2024-01-15T04:06:57;8.45;;;1.27;;
11962;SDS011;62678;52.130;5.584;2024-01-15T04:09:24;10.27;;;1.85;;
11962;SDS011;62678;52.130;5.584;2024-01-15T04:11:51;3.60;;;1.52;;
11962;SDS011;62678;52.130;5.584;2024-01-15T04:14:18;8.15;;;1.40;;
11962;SDS011;62678;52.130;5.584;2024-01-15T04:16:46;5.95;;;1.40;;
11962;SDS011;62678;52.130;5.584;2024-01-15T04:19:13;6.90;;;1.58;;
11962;SDS011;62678;52.130;5.584;2024-01-15T04:21:40;14.00;;;2.08;;
11962;SDS011;62678;52.130;5.584;2024-01-15T04:24:08;6.43;;;2.10;;
11962;SDS011;62678;52.130;5.584;2024-01-15T04:26:36;10.90;;;2.30;;
11962;SDS011;62678;52.130;5.584;2024-01-15T04:29:03;9.75;;;2.38;;
11962;SDS011;62678;52.130;5.584;2024-01-15T04:31:30;10.77;;;2.15;;
11962;SDS011;62678;52.130;5.584;2024-01-15T04:33:57;12.27;;;2.63;;
11962;SDS011;62678;52.130;5.584;2024-01-15T04:36:24;14.35;;;2.35;;
11962;SDS011;62678;52.130;5.584;2024-01-15T04:38:51;10.20;;;2.47;;
11962;SDS011;62678;52.130;5.584;2024-01-15T04:41:20;13.30;;;2.42;;
11962;SDS011;62678;52.130;5.584;2024-01-15T04:43:47;7.68;;;2.35;;
11962;SDS011;62678;52.130;5.584;2024-01-15T04:46:14;11.52;;;2.50;;
11962;SDS011;62678;52.130;5.584;2024-01-15T04:48:41;10.73;;;2.53;;
11962;SDS011;62678;52.130;5.584;2024-01-15T04:51:09;10.85;;;2.40;;
11962;SDS011;62678;52.130;5.584;2024-01-15T04:53:36;15.93;;;2.03;;
11962;SDS011;62678;52.130;5.584;2024-01-15T04:56:03;10.57;;;2.42;;
11962;SDS011;62678;52.130;5.584;2024-01-15T04:58:32;11.45;;;2.05;;
11962;SDS011;62678;52.130;5.584;2024-01-15T05:00:59;11.73;;;2.08;;
11962;SDS011;62678;52.130;5.584;2024-01-15T05:03:26;11.70;;;2.20;;
11962;SDS011;62678;52.130;5.584;2024-01-15T05:05:53;10.50;;;2.10;;
11962;SDS011;62678;52.130;5.584;2024-01-15T05:08:20;13.63;;;2.38;;
11962;SDS011;62678;52.130;5.584;2024-01-15T05:10:48;20.88;;;2.30;;
11962;SDS011;62678;52.130;5.584;2024-01-15T05:13:15;12.77;;;1.85;;
11962;SDS011;62678;52.130;5.584;2024-01-15T05:15:43;11.88;;;2.10;;
11962;SDS011;62678;52.130;5.584;2024-01-15T05:18:11;8.80;;;1.60;;
11962;SDS011;62678;52.130;5.584;2024-01-15T05:20:38;10.85;;;1.60;;
11962;SDS011;62678;52.130;5.584;2024-01-15T05:23:05;12.57;;;1.85;;
11962;SDS011;62678;52.130;5.584;2024-01-15T05:25:32;13.38;;;1.80;;
11962;SDS011;62678;52.130;5.584;2024-01-15T05:27:59;9.52;;;1.45;;
11962;SDS011;62678;52.130;5.584;2024-01-15T05:30:27;8.48;;;1.80;;
11962;SDS011;62678;52.130;5.584;2024-01-15T05:32:55;7.35;;;1.48;;
11962;SDS011;62678;52.130;5.584;2024-01-15T05:35:25;12.63;;;2.10;;
11962;SDS011;62678;52.130;5.584;2024-01-15T05:37:52;9.23;;;1.85;;
11962;SDS011;62678;52.130;5.584;2024-01-15T05:40:19;15.25;;;2.22;;
11962;SDS011;62678;52.130;5.584;2024-01-15T05:42:46;11.35;;;1.60;;
11962;SDS011;62678;52.130;5.584;2024-01-15T05:45:13;17.45;;;2.10;;
11962;SDS011;62678;52.130;5.584;2024-01-15T05:47:41;9.68;;;1.90;;
11962;SDS011;62678;52.130;5.584;2024-01-15T05:50:10;12.13;;;1.50;;
11962;SDS011;62678;52.130;5.584;2024-01-15T05:52:37;10.63;;;1.33;;
11962;SDS011;62678;52.130;5.584;2024-01-15T05:55:04;10.38;;;1.63;;
11962;SDS011;62678;52.130;5.584;2024-01-15T05:57:32;14.18;;;1.48;;
11962;SDS011;62678;52.130;5.584;2024-01-15T05:59:59;12.27;;;2.03;;
11962;SDS011;62678;52.130;5.584;2024-01-15T06:02:27;11.15;;;1.70;;
11962;SDS011;62678;52.130;5.584;2024-01-15T06:04:54;8.43;;;1.50;;
11962;SDS011;62678;52.130;5.584;2024-01-15T06:07:23;12.82;;;2.17;;
11962;SDS011;62678;52.130;5.584;2024-01-15T06:09:50;11.32;;;1.85;;
11962;SDS011;62678;52.130;5.584;2024-01-15T06:12:18;8.35;;;1.70;;
11962;SDS011;62678;52.130;5.584;2024-01-15T06:14:45;9.48;;;1.92;;
11962;SDS011;62678;52.130;5.584;2024-01-15T06:17:12;11.50;;;1.73;;
11962;SDS011;62678;52.130;5.584;2024-01-15T06:19:39;7.57;;;1.63;;
11962;SDS011;62678;52.130;5.584;2024-01-15T06:22:06;11.20;;;1.80;;
11962;SDS011;62678;52.130;5.584;2024-01-15T06:24:35;8.88;;;1.70;;
11962;SDS011;62678;52.130;5.584;2024-01-15T06:27:02;7.30;;;2.05;;
11962;SDS011;62678;52.130;5.584;2024-01-15T06:29:29;4.20;;;1.90;;
11962;SDS011;62678;52.130;5.584;2024-01-15T06:31:56;7.85;;;1.70;;
11962;SDS011;62678;52.130;5.584;2024-01-15T06:34:24;13.95;;;3.78;;
11962;SDS011;62678;52.130;5.584;2024-01-15T06:36:51;7.85;;;2.97;;
11962;SDS011;62678;52.130;5.584;2024-01-15T06:39:18;10.80;;;3.20;;
11962;SDS011;62678;52.130;5.584;2024-01-15T06:41:46;12.50;;;4.13;;
11962;SDS011;62678;52.130;5.584;2024-01-15T06:44:13;12.45;;;3.92;;
11962;SDS011;62678;52.130;5.584;2024-01-15T06:46:41;6.45;;;3.80;;
11962;SDS011;62678;52.130;5.584;2024-01-15T06:49:09;11.55;;;4.00;;
11962;SDS011;62678;52.130;5.584;2024-01-15T06:51:36;15.07;;;5.90;;
11962;SDS011;62678;52.130;5.584;2024-01-15T06:54:03;15.20;;;5.18;;
11962;SDS011;62678;52.130;5.584;2024-01-15T06:56:31;17.60;;;9.07;;
11962;SDS011;62678;52.130;5.584;2024-01-15T06:58:59;15.07;;;4.95;;
11962;SDS011;62678;52.130;5.584;2024-01-15T07:01:27;14.68;;;6.47;;
11962;SDS011;62678;52.130;5.584;2024-01-15T07:03:54;22.13;;;6.82;;
11962;SDS011;62678;52.130;5.584;2024-01-15T07:06:21;14.60;;;6.93;;
11962;SDS011;62678;52.130;5.584;2024-01-15T07:08:48;9.80;;;5.40;;
11962;SDS011;62678;52.130;5.584;2024-01-15T07:11:16;14.85;;;5.78;;
11962;SDS011;62678;52.130;5.584;2024-01-15T07:13:43;14.23;;;6.18;;
11962;SDS011;62678;52.130;5.584;2024-01-15T07:16:11;38.83;;;23.52;;
11962;SDS011;62678;52.130;5.584;2024-01-15T07:18:39;17.00;;;8.85;;
11962;SDS011;62678;52.130;5.584;2024-01-15T07:21:06;15.13;;;7.72;;
11962;SDS011;62678;52.130;5.584;2024-01-15T07:23:33;17.38;;;7.97;;
11962;SDS011;62678;52.130;5.584;2024-01-15T07:26:00;15.68;;;7.63;;
11962;SDS011;62678;52.130;5.584;2024-01-15T07:28:28;12.63;;;8.25;;
11962;SDS011;62678;52.130;5.584;2024-01-15T07:30:56;12.07;;;8.38;;
11962;SDS011;62678;52.130;5.584;2024-01-15T07:33:24;14.13;;;8.07;;
11962;SDS011;62678;52.130;5.584;2024-01-15T07:35:52;12.60;;;7.75;;
11962;SDS011;62678;52.130;5.584;2024-01-15T07:38:19;15.93;;;6.55;;
11962;SDS011;62678;52.130;5.584;2024-01-15T07:40:47;10.93;;;5.13;;
11962;SDS011;62678;52.130;5.584;2024-01-15T07:43:15;10.70;;;4.93;;
11962;SDS011;62678;52.130;5.584;2024-01-15T07:45:42;13.45;;;5.30;;
11962;SDS011;62678;52.130;5.584;2024-01-15T07:48:10;13.20;;;6.43;;
11962;SDS011;62678;52.130;5.584;2024-01-15T07:50:38;8.93;;;5.82;;
11962;SDS011;62678;52.130;5.584;2024-01-15T07:53:06;13.35;;;6.10;;
11962;SDS011;62678;52.130;5.584;2024-01-15T07:55:33;13.57;;;8.07;;
11962;SDS011;62678;52.130;5.584;2024-01-15T07:58:00;13.15;;;7.15;;
11962;SDS011;62678;52.130;5.584;2024-01-15T08:00:28;12.45;;;7.00;;
11962;SDS011;62678;52.130;5.584;2024-01-15T08:02:55;10.60;;;6.30;;
11962;SDS011;62678;52.130;5.584;2024-01-15T08:05:22;11.57;;;7.10;;
11962;SDS011;62678;52.130;5.584;2024-01-15T08:07:51;10.35;;;5.75;;
11962;SDS011;62678;52.130;5.584;2024-01-15T08:10:18;12.63;;;6.10;;
11962;SDS011;62678;52.130;5.584;2024-01-15T08:12:45;9.50;;;5.60;;
11962;SDS011;62678;52.130;5.584;2024-01-15T08:15:13;12.05;;;5.75;;
11962;SDS011;62678;52.130;5.584;2024-01-15T08:17:40;9.95;;;6.05;;
11962;SDS011;62678;52.130;5.584;2024-01-15T08:20:07;12.27;;;5.45;;
11962;SDS011;62678;52.130;5.584;2024-01-15T08:22:35;9.90;;;5.53;;
11962;SDS011;62678;52.130;5.584;2024-01-15T08:25:04;9.48;;;4.70;;
11962;SDS011;62678;52.130;5.584;2024-01-15T08:27:32;7.90;;;5.00;;
11962;SDS011;62678;52.130;5.584;2024-01-15T08:29:59;11.63;;;5.75;;
11962;SDS011;62678;52.130;5.584;2024-01-15T08:32:26;13.18;;;6.40;;
11962;SDS011;62678;52.130;5.584;2024-01-15T08:34:53;11.40;;;6.32;;
11962;SDS011;62678;52.130;5.584;2024-01-15T08:37:20;10.73;;;6.75;;
11962;SDS011;62678;52.130;5.584;2024-01-15T08:39:47;11.00;;;6.57;;
11962;SDS011;62678;52.130;5.584;2024-01-15T08:42:16;11.80;;;7.50;;
11962;SDS011;62678;52.130;5.584;2024-01-15T08:44:43;19.25;;;7.80;;
11962;SDS011;62678;52.130;5.584;2024-01-15T08:47:10;12.48;;;7.82;;
11962;SDS011;62678;52.130;5.584;2024-01-15T08:49:37;15.23;;;6.95;;
11962;SDS011;62678;52.130;5.584;2024-01-15T08:52:05;16.95;;;7.93;;
11962;SDS011;62678;52.130;5.584;2024-01-15T08:54:32;13.52;;;6.75;;
11962;SDS011;62678;52.130;5.584;2024-01-15T08:56:59;12.80;;;7.53;;
11962;SDS011;62678;52.130;5.584;2024-01-15T08:59:28;14.43;;;7.28;;
11962;SDS011;62678;52.130;5.584;2024-01-15T09:01:55;13.68;;;7.63;;
11962;SDS011;62678;52.130;5.584;2024-01-15T09:04:22;11.95;;;6.85;;
11962;SDS011;62678;52.130;5.584;2024-01-15T09:06:50;18.10;;;6.97;;
11962;SDS011;62678;52.130;5.584;2024-01-15T09:09:17;15.20;;;6.35;;
11962;SDS011;62678;52.130;5.584;2024-01-15T09:11:44;13.40;;;6.20;;
11962;SDS011;62678;52.130;5.584;2024-01-15T09:14:12;12.52;;;6.03;;
11962;SDS011;62678;52.130;5.584;2024-01-15T09:16:40;13.95;;;5.22;;
11962;SDS011;62678;52.130;5.584;2024-01-15T09:19:08;13.85;;;5.30;;
11962;SDS011;62678;52.130;5.584;2024-01-15T09:21:35;9.57;;;4.40;;
11962;SDS011;62678;52.130;5.584;2024-01-15T09:24:02;12.02;;;4.70;;
11962;SDS011;62678;52.130;5.584;2024-01-15T09:26:29;9.93;;;3.70;;
11962;SDS011;62678;52.130;5.584;2024-01-15T09:28:56;9.77;;;4.00;;
11962;SDS011;62678;52.130;5.584;2024-01-15T09:31:24;8.57;;;3.30;;
11962;SDS011;62678;52.130;5.584;2024-01-15T09:33:53;12.60;;;3.08;;
11962;SDS011;62678;52.130;5.584;2024-01-15T09:36:21;15.07;;;3.30;;
11962;SDS011;62678;52.130;5.584;2024-01-15T09:38:48;5.85;;;2.47;;
11962;SDS011;62678;52.130;5.584;2024-01-15T09:41:16;8.25;;;2.70;;
11962;SDS011;62678;52.130;5.584;2024-01-15T09:43:43;13.77;;;3.33;;
11962;SDS011;62678;52.130;5.584;2024-01-15T09:46:11;12.27;;;2.85;;
11962;SDS011;62678;52.130;5.584;2024-01-15T09:48:38;10.20;;;2.42;;
11962;SDS011;62678;52.130;5.584;2024-01-15T09:51:07;8.75;;;2.22;;
11962;SDS011;62678;52.130;5.584;2024-01-15T09:53:35;10.15;;;2.63;;
11962;SDS011;62678;52.130;5.584;2024-01-15T09:56:02;6.57;;;2.28;;
11962;SDS011;62678;52.130;5.584;2024-01-15T09:58:30;9.65;;;2.38;;
11962;SDS011;62678;52.130;5.584;2024-01-15T10:00:58;12.88;;;2.63;;
11962;SDS011;62678;52.130;5.584;2024-01-15T10:03:28;7.13;;;2.65;;
11962;SDS011;62678;52.130;5.584;2024-01-15T10:05:55;9.07;;;2.00;;
11962;SDS011;62678;52.130;5.584;2024-01-15T10:08:25;9.05;;;2.38;;
11962;SDS011;62678;52.130;5.584;2024-01-15T10:10:53;7.40;;;2.20;;
11962;SDS011;62678;52.130;5.584;2024-01-15T10:13:20;6.75;;;2.05;;
11962;SDS011;62678;52.130;5.584;2024-01-15T10:15:48;8.52;;;2.13;;
11962;SDS011;62678;52.130;5.584;2024-01-15T10:18:15;7.30;;;2.42;;
11962;SDS011;62678;52.130;5.584;2024-01-15T10:20:42;11.35;;;2.78;;
11962;SDS011;62678;52.130;5.584;2024-01-15T10:23:09;11.43;;;2.47;;
11962;SDS011;62678;52.130;5.584;2024-01-15T10:25:38;8.38;;;2.22;;
11962;SDS011;62678;52.130;5.584;2024-01-15T10:28:05;10.00;;;2.13;;
11962;SDS011;62678;52.130;5.584;2024-01-15T10:30:32;11.02;;;2.40;;
11962;SDS011;62678;52.130;5.584;2024-01-15T10:33:00;6.40;;;1.92;;
11962;SDS011;62678;52.130;5.584;2024-01-15T10:35:27;7.47;;;1.90;;
11962;SDS011;62678;52.130;5.584;2024-01-15T10:37:55;8.35;;;2.42;;
11962;SDS011;62678;52.130;5.584;2024-01-15T10:40:23;6.82;;;2.13;;
11962;SDS011;62678;52.130;5.584;2024-01-15T10:42:51;4.47;;;1.67;;
11962;SDS011;62678;52.130;5.584;2024-01-15T10:45:18;13.43;;;2.35;;
11962;SDS011;62678;52.130;5.584;2024-01-15T10:47:45;10.73;;;2.25;;
11962;SDS011;62678;52.130;5.584;2024-01-15T10:50:13;11.35;;;2.05;;
11962;SDS011;62678;52.130;5.584;2024-01-15T10:52:41;6.18;;;2.20;;
11962;SDS011;62678;52.130;5.584;2024-01-15T10:55:09;10.05;;;2.17;;
11962;SDS011;62678;52.130;5.584;2024-01-15T10:57:37;9.82;;;1.92;;
11962;SDS011;62678;52.130;5.584;2024-01-15T11:00:06;10.50;;;2.17;;
11962;SDS011;62678;52.130;5.584;2024-01-15T11:02:39;12.05;;;2.15;;
11962;SDS011;62678;52.130;5.584;2024-01-15T11:05:08;8.07;;;1.85;;
11962;SDS011;62678;52.130;5.584;2024-01-15T11:07:35;8.45;;;1.95;;
11962;SDS011;62678;52.130;5.584;2024-01-15T11:10:03;9.27;;;2.08;;
11962;SDS011;62678;52.130;5.584;2024-01-15T11:12:30;20.25;;;2.55;;
11962;SDS011;62678;52.130;5.584;2024-01-15T11:15:01;11.45;;;1.98;;
11962;SDS011;62678;52.130;5.584;2024-01-15T11:17:57;7.00;;;1.80;;
11962;SDS011;62678;52.130;5.584;2024-01-15T11:20:22;12.43;;;2.08;;
11962;SDS011;62678;52.130;5.584;2024-01-15T11:22:49;10.60;;;1.85;;
11962;SDS011;62678;52.130;5.584;2024-01-15T11:25:18;12.13;;;2.50;;
11962;SDS011;62678;52.130;5.584;2024-01-15T11:27:45;6.90;;;1.67;;
11962;SDS011;62678;52.130;5.584;2024-01-15T11:30:16;4.63;;;1.50;;
11962;SDS011;62678;52.130;5.584;2024-01-15T11:32:46;6.63;;;1.65;;
11962;SDS011;62678;52.130;5.584;2024-01-15T11:35:13;11.95;;;2.90;;
11962;SDS011;62678;52.130;5.584;2024-01-15T11:37:57;7.10;;;2.05;;
11962;SDS011;62678;52.130;5.584;2024-01-15T11:40:35;6.03;;;2.00;;
11962;SDS011;62678;52.130;5.584;2024-01-15T11:43:03;7.68;;;1.70;;
11962;SDS011;62678;52.130;5.584;2024-01-15T11:45:31;6.63;;;1.77;;
11962;SDS011;62678;52.130;5.584;2024-01-15T11:48:13;7.93;;;1.48;;
11962;SDS011;62678;52.130;5.584;2024-01-15T11:50:40;5.35;;;1.35;;
11962;SDS011;62678;52.130;5.584;2024-01-15T11:53:11;9.23;;;1.30;;
11962;SDS011;62678;52.130;5.584;2024-01-15T11:55:41;6.40;;;1.40;;
11962;SDS011;62678;52.130;5.584;2024-01-15T11:58:11;4.72;;;1.27;;
11962;SDS011;62678;52.130;5.584;2024-01-15T12:00:39;5.18;;;1.33;;
11962;SDS011;62678;52.130;5.584;2024-01-15T12:03:06;7.32;;;1.33;;
11962;SDS011;62678;52.130;5.584;2024-01-15T12:05:36;8.77;;;1.55;;
11962;SDS011;62678;52.130;5.584;2024-01-15T12:08:03;3.97;;;1.15;;
11962;SDS011;62678;52.130;5.584;2024-01-15T12:10:35;4.97;;;1.25;;
11962;SDS011;62678;52.130;5.584;2024-01-15T12:13:04;4.88;;;1.08;;
11962;SDS011;62678;52.130;5.584;2024-01-15T12:15:30;6.40;;;1.15;;
11962;SDS011;62678;52.130;5.584;2024-01-15T12:17:58;2.80;;;0.98;;
11962;SDS011;62678;52.130;5.584;2024-01-15T12:20:27;5.05;;;0.82;;
11962;SDS011;62678;52.130;5.584;2024-01-15T12:22:56;7.72;;;1.35;;
11962;SDS011;62678;52.130;5.584;2024-01-15T12:25:23;7.30;;;1.25;;
11962;SDS011;62678;52.130;5.584;2024-01-15T12:27:52;3.85;;;1.02;;
11962;SDS011;62678;52.130;5.584;2024-01-15T12:30:19;4.55;;;1.40;;
11962;SDS011;62678;52.130;5.584;2024-01-15T12:32:46;6.25;;;1.60;;
11962;SDS011;62678;52.130;5.584;2024-01-15T12:35:14;5.43;;;1.48;;
11962;SDS011;62678;52.130;5.584;2024-01-15T12:37:41;3.95;;;1.40;;
11962;SDS011;62678;52.130;5.584;2024-01-15T12:40:10;6.03;;;1.02;;
11962;SDS011;62678;52.130;5.584;2024-01-15T12:42:39;8.13;;;1.40;;
11962;SDS011;62678;52.130;5.584;2024-01-15T12:45:06;3.65;;;1.25;;
11962;SDS011;62678;52.130;5.584;2024-01-15T12:47:34;6.28;;;1.50;;
11962;SDS011;62678;52.130;5.584;2024-01-15T12:50:01;6.10;;;1.52;;
11962;SDS011;62678;52.130;5.584;2024-01-15T12:52:29;9.55;;;1.80;;
11962;SDS011;62678;52.130;5.584;2024-01-15T12:54:56;9.48;;;2.05;;
11962;SDS011;62678;52.130;5.584;2024-01-15T12:57:25;8.95;;;2.08;;
11962;SDS011;62678;52.130;5.584;2024-01-15T12:59:54;6.63;;;2.05;;
11962;SDS011;62678;52.130;5.584;2024-01-15T13:02:21;12.05;;;2.70;;
11962;SDS011;62678;52.130;5.584;2024-01-15T13:04:48;9.35;;;2.90;;
11962;SDS011;62678;52.130;5.584;2024-01-15T13:07:16;9.75;;;1.92;;
11962;SDS011;62678;52.130;5.584;2024-01-15T13:09:43;12.65;;;2.53;;
11962;SDS011;62678;52.130;5.584;2024-01-15T13:12:10;8.55;;;2.45;;
11962;SDS011;62678;52.130;5.584;2024-01-15T13:14:39;9.40;;;1.98;;
11962;SDS011;62678;52.130;5.584;2024-01-15T13:17:06;7.07;;;2.00;;
11962;SDS011;62678;52.130;5.584;2024-01-15T13:19:33;9.52;;;2.22;;
11962;SDS011;62678;52.130;5.584;2024-01-15T13:22:01;8.15;;;1.58;;
11962;SDS011;62678;52.130;5.584;2024-01-15T13:24:28;14.30;;;2.15;;
11962;SDS011;62678;52.130;5.584;2024-01-15T13:26:56;9.23;;;2.30;;
11962;SDS011;62678;52.130;5.584;2024-01-15T13:29:23;5.85;;;1.40;;
11962;SDS011;62678;52.130;5.584;2024-01-15T13:31:51;11.13;;;1.88;;
11962;SDS011;62678;52.130;5.584;2024-01-15T13:34:19;6.35;;;1.60;;
11962;SDS011;62678;52.130;5.584;2024-01-15T13:36:46;6.55;;;1.40;;
11962;SDS011;62678;52.130;5.584;2024-01-15T13:39:15;7.72;;;1.52;;
11962;SDS011;62678;52.130;5.584;2024-01-15T13:41:45;8.73;;;1.65;;
11962;SDS011;62678;52.130;5.584;2024-01-15T13:44:12;10.55;;;2.33;;
11962;SDS011;62678;52.130;5.584;2024-01-15T13:46:39;9.38;;;2.13;;
11962;SDS011;62678;52.130;5.584;2024-01-15T13:49:08;10.38;;;2.72;;
11962;SDS011;62678;52.130;5.584;2024-01-15T13:51:35;13.23;;;1.90;;
11962;SDS011;62678;52.130;5.584;2024-01-15T13:54:02;8.73;;;1.75;;
11962;SDS011;62678;52.130;5.584;2024-01-15T13:56:30;6.55;;;1.50;;
11962;SDS011;62678;52.130;5.584;2024-01-15T13:58:57;10.23;;;1.95;;
11962;SDS011;62678;52.130;5.584;2024-01-15T14:01:25;8.25;;;2.08;;
11962;SDS011;62678;52.130;5.584;2024-01-15T14:03:52;10.55;;;1.85;;
11962;SDS011;62678;52.130;5.584;2024-01-15T14:06:21;10.90;;;2.05;;
11962;SDS011;62678;52.130;5.584;2024-01-15T14:08:49;11.63;;;2.60;;
11962;SDS011;62678;52.130;5.584;2024-01-15T14:11:17;9.73;;;1.55;;
11962;SDS011;62678;52.130;5.584;2024-01-15T14:13:44;11.85;;;2.63;;
11962;SDS011;62678;52.130;5.584;2024-01-15T14:16:12;9.23;;;2.20;;
11962;SDS011;62678;52.130;5.584;2024-01-15T14:18:39;12.90;;;2.50;;
11962;SDS011;62678;52.130;5.584;2024-01-15T14:21:07;9.95;;;2.45;;
11962;SDS011;62678;52.130;5.584;2024-01-15T14:23:36;8.82;;;1.90;;
11962;SDS011;62678;52.130;5.584;2024-01-15T14:26:03;12.73;;;2.42;;
11962;SDS011;62678;52.130;5.584;2024-01-15T14:28:30;8.43;;;2.10;;
11962;SDS011;62678;52.130;5.584;2024-01-15T14:30:58;16.73;;;2.72;;
11962;SDS011;62678;52.130;5.584;2024-01-15T14:33:25;10.68;;;2.72;;
11962;SDS011;62678;52.130;5.584;2024-01-15T14:35:52;7.00;;;1.70;;
11962;SDS011;62678;52.130;5.584;2024-01-15T14:38:19;10.85;;;1.95;;
11962;SDS011;62678;52.130;5.584;2024-01-15T14:40:48;9.82;;;2.03;;
11962;SDS011;62678;52.130;5.584;2024-01-15T14:43:15;10.07;;;1.83;;